Time;durP1;ratioP1;P1;durP2;ratioP2;P2;SDS_P1;SDS_P2;PMS_P1;PMS_P2;Temp;Humidity;BMP_temperature;BMP_pressure;BME280_temperature;BME280_humidity;BME280_pressure;Samples;Min_cycle;Max_cycle;Signal;HPM_P1;HPM_P2
2023/06/20 00:00:33;;;;;;;;;;;22.90;54.60;;;;;;5073868;28;20256;-33
2023/06/20 00:02:59;;;;;;;;;;;22.90;54.60;;;;;;5073777;28;19909;-34
2023/06/20 00:05:24;;;;;;;;;;;22.90;54.70;;;;;;5073816;28;19956;-34
2023/06/20 00:07:50;;;;;;;;;;;22.90;54.70;;;;;;5055783;28;19970;-33
2023/06/20 00:10:15;;;;;;;;;;;22.90;54.70;;;;;;5073718;28;19908;-33
2023/06/20 00:12:40;;;;;;;;;;;22.80;54.80;;;;;;5073671;28;20296;-33
2023/06/20 00:15:06;;;;;;;;;;;22.80;54.80;;;;;;5073607;28;19908;-35
2023/06/20 00:17:32;;;;;;;;;;;22.80;54.80;;;;;;5055576;28;20303;-35
2023/06/20 00:19:57;;;;;;;;;;;22.80;54.90;;;;;;5073556;28;19908;-36
2023/06/20 00:22:23;;;;;;;;;;;22.80;54.80;;;;;;5073712;28;20013;-34
2023/06/20 00:24:48;;;;;;;;;;;22.80;54.90;;;;;;5073290;28;19923;-33
2023/06/20 00:27:14;;;;;;;;;;;22.80;55.00;;;;;;5055269;28;19963;-34
2023/06/20 00:29:39;;;;;;;;;;;22.70;55.00;;;;;;5073198;28;20288;-33
2023/06/20 00:32:05;;;;;;;;;;;22.70;55.10;;;;;;5073088;28;19908;-33
2023/06/20 00:34:30;;;;;;;;;;;22.70;55.00;;;;;;5073333;28;19909;-34
2023/06/20 00:36:56;;;;;;;;;;;22.70;55.80;;;;;;5073240;28;19995;-34
2023/06/20 00:39:21;;;;;;;;;;;22.70;55.20;;;;;;5073084;28;19908;-34
2023/06/20 00:41:47;;;;;;;;;;;22.70;55.20;;;;;;5072986;28;19916;-34
2023/06/20 00:44:12;;;;;;;;;;;22.70;55.20;;;;;;5072972;28;19908;-33
2023/06/20 00:46:40;;;;;;;;;;;22.70;55.20;;;;;;5054941;28;19912;-34
2023/06/20 00:49:07;;;;;;;;;;;22.70;55.10;;;;;;5072870;28;20386;-33
2023/06/20 00:51:33;;;;;;;;;;;22.70;55.20;;;;;;5072802;28;20307;-35
2023/06/20 00:53:58;;;;;;;;;;;22.70;55.20;;;;;;5072573;28;19908;-32
2023/06/20 00:56:24;;;;;;;;;;;22.70;55.20;;;;;;5072706;28;19915;-34
2023/06/20 00:58:50;;;;;;;;;;;22.70;55.30;;;;;;5072694;28;19916;-32
2023/06/20 01:01:18;;;;;;;;;;;22.60;55.30;;;;;;5072555;28;19908;-35
2023/06/20 01:03:46;;;;;;;;;;;22.60;55.20;;;;;;5072513;28;19915;-34
2023/06/20 01:06:20;;;;;;;;;;;22.60;55.20;;;;;;5072439;28;20391;-32
2023/06/20 01:08:51;;;;;;;;;;;22.60;55.20;;;;;;5072651;28;19931;-35
2023/06/20 01:11:27;;;;;;;;;;;22.60;55.30;;;;;;5072478;28;19916;-36
2023/06/20 01:13:55;;;;;;;;;;;22.60;55.60;;;;;;5072391;28;19915;-33
2023/06/20 01:16:21;;;;;;;;;;;22.50;55.50;;;;;;5072401;28;19915;-34
2023/06/20 01:18:54;;;;;;;;;;;22.60;55.60;;;;;;5072393;28;20298;-33
2023/06/20 01:21:24;;;;;;;;;;;22.50;55.50;;;;;;5072492;28;19908;-34
2023/06/20 01:24:00;;;;;;;;;;;22.50;55.50;;;;;;5072235;28;20291;-33
2023/06/20 01:26:45;;;;;;;;;;;22.50;55.50;;;;;;5072570;28;20019;-32
2023/06/20 01:29:26;;;;;;;;;;;22.50;55.50;;;;;;5072256;28;19908;-33
2023/06/20 01:31:56;;;;;;;;;;;22.60;55.50;;;;;;5072307;28;19916;-34
2023/06/20 01:34:24;;;;;;;;;;;22.50;55.40;;;;;;5071996;28;20000;-34
2023/06/20 01:36:56;;;;;;;;;;;22.60;55.70;;;;;;5072344;28;20386;-35
2023/06/20 01:39:42;;;;;;;;;;;22.50;55.50;;;;;;5072239;28;19909;-34
2023/06/20 01:42:08;;;;;;;;;;;22.50;55.60;;;;;;5071439;28;19908;-34
2023/06/20 01:44:34;;;;;;;;;;;22.50;55.70;;;;;;5072301;28;20278;-32
2023/06/20 01:47:01;;;;;;;;;;;22.50;56.30;;;;;;5072207;28;20311;-34
2023/06/20 01:49:26;;;;;;;;;;;22.50;55.70;;;;;;5072034;28;20360;-33
2023/06/20 01:51:55;;;;;;;;;;;22.50;55.60;;;;;;5071875;28;19915;-33
2023/06/20 01:54:22;;;;;;;;;;;22.50;55.60;;;;;;5072184;28;19940;-33
2023/06/20 01:56:48;;;;;;;;;;;22.50;55.60;;;;;;5053981;28;19908;-33
2023/06/20 01:59:14;;;;;;;;;;;22.50;55.70;;;;;;5071862;28;19916;-32
2023/06/20 02:01:42;;;;;;;;;;;22.40;55.60;;;;;;5071855;28;19919;-33
2023/06/20 02:04:08;;;;;;;;;;;22.40;55.70;;;;;;5072124;28;19985;-35
2023/06/20 02:06:34;;;;;;;;;;;22.40;55.70;;;;;;5074301;28;20302;-32
2023/06/20 02:09:00;;;;;;;;;;;22.50;55.80;;;;;;5075988;28;19948;-35
2023/06/20 02:11:27;;;;;;;;;;;22.50;55.80;;;;;;5075873;28;20041;-33
2023/06/20 02:13:53;;;;;;;;;;;22.40;55.90;;;;;;5075868;28;19908;-34
2023/06/20 02:16:19;;;;;;;;;;;22.40;55.90;;;;;;5075785;28;19909;-36
2023/06/20 02:18:45;;;;;;;;;;;22.40;56.00;;;;;;5076153;28;19997;-34
2023/06/20 02:21:14;;;;;;;;;;;22.40;56.00;;;;;;5075957;28;19952;-36
2023/06/20 02:23:40;;;;;;;;;;;22.40;56.00;;;;;;5075316;28;19924;-34
2023/06/20 02:26:09;;;;;;;;;;;22.40;56.00;;;;;;5075319;28;20015;-34
2023/06/20 02:28:38;;;;;;;;;;;22.50;56.20;;;;;;5075662;28;19908;-33
2023/06/20 02:31:05;;;;;;;;;;;22.40;56.10;;;;;;5075541;28;19912;-35
2023/06/20 02:33:32;;;;;;;;;;;22.40;56.10;;;;;;5075405;28;19909;-33
2023/06/20 02:35:59;;;;;;;;;;;22.40;56.10;;;;;;5075726;28;19909;-34
2023/06/20 02:38:25;;;;;;;;;;;22.40;56.20;;;;;;5075267;28;19962;-33
2023/06/20 02:40:50;;;;;;;;;;;22.40;56.30;;;;;;5075888;28;19908;-35
2023/06/20 02:43:16;;;;;;;;;;;22.40;56.20;;;;;;5075221;28;19908;-33
2023/06/20 02:45:41;;;;;;;;;;;22.40;56.20;;;;;;5075242;28;19916;-34
2023/06/20 02:48:16;;;;;;;;;;;22.40;56.40;;;;;;5075246;28;20348;-35
2023/06/20 02:50:47;;;;;;;;;;;22.30;56.50;;;;;;5057253;28;20003;-32
2023/06/20 02:53:18;;;;;;;;;;;22.30;56.50;;;;;;5075187;28;19912;-38
2023/06/20 02:55:44;;;;;;;;;;;22.30;56.60;;;;;;5075168;28;19908;-34
2023/06/20 02:58:12;;;;;;;;;;;22.30;56.60;;;;;;5075322;28;19908;-33
2023/06/20 03:00:40;;;;;;;;;;;22.30;56.70;;;;;;5075055;28;19991;-33
2023/06/20 03:03:08;;;;;;;;;;;22.30;56.70;;;;;;5074829;28;19962;-33
2023/06/20 03:05:35;;;;;;;;;;;22.30;56.70;;;;;;5074670;28;19912;-32
2023/06/20 03:08:01;;;;;;;;;;;22.30;56.80;;;;;;5074888;28;19914;-33
2023/06/20 03:10:27;;;;;;;;;;;22.30;56.90;;;;;;5075128;28;19908;-39
2023/06/20 03:12:53;;;;;;;;;;;22.30;57.00;;;;;;5074886;28;20310;-33
2023/06/20 03:15:18;;;;;;;;;;;22.30;57.10;;;;;;5074675;28;20268;-34
2023/06/20 03:17:44;;;;;;;;;;;22.20;57.20;;;;;;5074651;28;19977;-31
2023/06/20 03:20:09;;;;;;;;;;;22.30;57.20;;;;;;5074559;28;19948;-33
2023/06/20 03:22:35;;;;;;;;;;;22.20;57.10;;;;;;5074452;28;19908;-33
2023/06/20 03:25:01;;;;;;;;;;;22.30;57.10;;;;;;5074444;28;20312;-33
2023/06/20 03:27:26;;;;;;;;;;;22.30;57.00;;;;;;5074384;28;20376;-34
2023/06/20 03:29:52;;;;;;;;;;;22.30;57.00;;;;;;5074490;28;19915;-34
2023/06/20 03:32:17;;;;;;;;;;;22.30;57.20;;;;;;5074457;28;20322;-35
2023/06/20 03:34:43;;;;;;;;;;;22.30;57.20;;;;;;5074479;28;20006;-32
2023/06/20 03:37:08;;;;;;;;;;;22.30;57.20;;;;;;5074068;28;19912;-34
2023/06/20 03:39:34;;;;;;;;;;;22.30;57.30;;;;;;5074473;28;19916;-34
2023/06/20 03:41:59;;;;;;;;;;;22.30;57.40;;;;;;5074169;28;19912;-35
2023/06/20 03:44:24;;;;;;;;;;;22.20;57.40;;;;;;5074178;28;19909;-33
2023/06/20 03:46:50;;;;;;;;;;;22.20;57.40;;;;;;5073959;28;19999;-35
2023/06/20 03:49:15;;;;;;;;;;;22.20;57.40;;;;;;5074063;28;19909;-36
2023/06/20 03:51:41;;;;;;;;;;;22.20;57.50;;;;;;5074132;28;20011;-35
2023/06/20 03:54:06;;;;;;;;;;;22.20;57.50;;;;;;5073975;28;20264;-33
2023/06/20 03:56:32;;;;;;;;;;;22.20;57.50;;;;;;5073875;28;19912;-34
2023/06/20 03:58:57;;;;;;;;;;;22.20;57.60;;;;;;5073844;28;20066;-33
2023/06/20 04:01:24;;;;;;;;;;;22.20;57.60;;;;;;5073787;28;20411;-34
2023/06/20 04:03:50;;;;;;;;;;;22.20;57.60;;;;;;5073723;28;19915;-34
2023/06/20 04:06:15;;;;;;;;;;;22.20;57.60;;;;;;5073861;28;20003;-33
2023/06/20 04:08:42;;;;;;;;;;;22.20;57.70;;;;;;5073972;28;19995;-34
2023/06/20 04:11:07;;;;;;;;;;;22.20;58.40;;;;;;5073628;28;19916;-35
2023/06/20 04:13:33;;;;;;;;;;;22.20;57.80;;;;;;5073700;28;19919;-33
2023/06/20 04:15:58;;;;;;;;;;;22.20;57.90;;;;;;5073440;28;20007;-34
2023/06/20 04:18:24;;;;;;;;;;;22.20;57.80;;;;;;5073502;28;19908;-36
2023/06/20 04:20:49;;;;;;;;;;;22.20;57.70;;;;;;5073437;28;19908;-34
2023/06/20 04:23:15;;;;;;;;;;;22.20;57.70;;;;;;5073137;28;20370;-33
2023/06/20 04:25:40;;;;;;;;;;;22.30;57.80;;;;;;5073284;28;20367;-36
2023/06/20 04:28:06;;;;;;;;;;;22.30;57.70;;;;;;5072781;28;19981;-46
2023/06/20 04:30:31;;;;;;;;;;;22.30;57.80;;;;;;5073249;28;19908;-37
2023/06/20 04:32:57;;;;;;;;;;;22.30;57.80;;;;;;5073417;28;19909;-42
2023/06/20 04:35:22;;;;;;;;;;;22.30;57.90;;;;;;5073168;28;19916;-36
2023/06/20 04:37:54;;;;;;;;;;;22.30;57.90;;;;;;5055237;28;20364;-40
2023/06/20 04:40:19;;;;;;;;;;;22.30;57.90;;;;;;5072999;28;19912;-36
2023/06/20 04:42:48;;;;;;;;;;;22.30;57.90;;;;;;5055107;28;20046;-39
2023/06/20 04:45:14;;;;;;;;;;;22.30;58.00;;;;;;5072807;28;19919;-34
2023/06/20 04:47:41;;;;;;;;;;;22.20;58.00;;;;;;5072774;28;19912;-34
2023/06/20 04:50:09;;;;;;;;;;;22.20;57.90;;;;;;5072851;28;20354;-44
2023/06/20 04:52:35;;;;;;;;;;;22.20;58.00;;;;;;5072869;28;20367;-44
2023/06/20 04:55:03;;;;;;;;;;;22.20;58.10;;;;;;5072533;28;19915;-42
2023/06/20 04:57:29;;;;;;;;;;;22.20;58.10;;;;;;5073104;28;19908;-36
2023/06/20 04:59:55;;;;;;;;;;;22.20;58.10;;;;;;5072679;28;19908;-33
2023/06/20 05:02:20;;;;;;;;;;;22.20;58.00;;;;;;5072435;28;19915;-34
2023/06/20 05:04:46;;;;;;;;;;;22.20;58.10;;;;;;5072627;28;19916;-36
2023/06/20 05:07:11;;;;;;;;;;;22.30;58.10;;;;;;5072253;28;19922;-38
2023/06/20 05:09:37;;;;;;;;;;;22.30;58.10;;;;;;5072523;28;19913;-35
2023/06/20 05:12:02;;;;;;;;;;;22.30;58.20;;;;;;5072422;28;19970;-33
2023/06/20 05:14:28;;;;;;;;;;;22.40;58.10;;;;;;5072381;28;20436;-43
2023/06/20 05:16:53;;;;;;;;;;;22.40;58.00;;;;;;5072271;28;19912;-35
2023/06/20 05:19:19;;;;;;;;;;;22.40;58.00;;;;;;5072374;28;19909;-32
2023/06/20 05:21:44;;;;;;;;;;;22.50;58.00;;;;;;5072357;28;20054;-34
2023/06/20 05:24:10;;;;;;;;;;;22.50;58.00;;;;;;5072012;28;19917;-40
2023/06/20 05:26:36;;;;;;;;;;;22.50;57.90;;;;;;5054183;28;19939;-36
2023/06/20 05:29:03;;;;;;;;;;;22.60;57.90;;;;;;5072348;28;19908;-37
2023/06/20 05:31:29;;;;;;;;;;;22.60;57.90;;;;;;5072264;28;20608;-38
2023/06/20 05:33:54;;;;;;;;;;;22.70;57.80;;;;;;5071939;28;19908;-36
2023/06/20 05:36:20;;;;;;;;;;;22.70;57.90;;;;;;5072321;28;20000;-39
2023/06/20 05:38:48;;;;;;;;;;;22.70;57.80;;;;;;5054124;28;20015;-34
2023/06/20 05:41:16;;;;;;;;;;;22.80;57.90;;;;;;5071237;28;19980;-35
2023/06/20 05:43:42;;;;;;;;;;;22.70;57.80;;;;;;5053887;28;20399;-34
2023/06/20 05:46:08;;;;;;;;;;;22.80;57.80;;;;;;5071812;28;19913;-34
2023/06/20 05:48:34;;;;;;;;;;;22.80;57.80;;;;;;5071992;28;20378;-33
2023/06/20 05:51:00;;;;;;;;;;;22.90;57.90;;;;;;5071873;28;19909;-32
2023/06/20 05:53:28;;;;;;;;;;;22.90;57.90;;;;;;5071860;28;19908;-36
2023/06/20 05:55:53;;;;;;;;;;;22.90;57.80;;;;;;5053926;28;19932;-34
2023/06/20 05:58:19;;;;;;;;;;;22.90;57.80;;;;;;5071652;28;20283;-33
2023/06/20 06:00:45;;;;;;;;;;;23.00;57.80;;;;;;5072182;28;19958;-34
2023/06/20 06:03:12;;;;;;;;;;;23.00;57.80;;;;;;5071688;28;20400;-34
2023/06/20 06:05:39;;;;;;;;;;;23.00;57.80;;;;;;5071802;28;20249;-33
2023/06/20 06:08:04;;;;;;;;;;;23.00;57.70;;;;;;5071835;28;19908;-35
2023/06/20 06:10:30;;;;;;;;;;;23.10;57.80;;;;;;5072064;28;19915;-34
2023/06/20 06:12:56;;;;;;;;;;;23.10;57.80;;;;;;5071752;28;19908;-37
2023/06/20 06:15:21;;;;;;;;;;;23.10;57.70;;;;;;5071903;28;19954;-34
2023/06/20 06:17:48;;;;;;;;;;;23.20;57.80;;;;;;5071789;28;19908;-32
2023/06/20 06:20:17;;;;;;;;;;;23.20;57.80;;;;;;5071797;28;20432;-34
2023/06/20 06:22:43;;;;;;;;;;;23.20;57.80;;;;;;5071652;28;19915;-35
2023/06/20 06:25:08;;;;;;;;;;;23.30;57.70;;;;;;5071631;28;19917;-33
2023/06/20 06:27:34;;;;;;;;;;;23.30;57.80;;;;;;5071562;28;19923;-32
2023/06/20 06:30:00;;;;;;;;;;;23.30;57.90;;;;;;5071672;28;20018;-33
2023/06/20 06:32:27;;;;;;;;;;;23.30;58.00;;;;;;5071606;28;19909;-33
2023/06/20 06:34:53;;;;;;;;;;;23.40;58.00;;;;;;5071744;28;19916;-35
2023/06/20 06:37:20;;;;;;;;;;;23.40;58.00;;;;;;5071505;28;19909;-32
2023/06/20 06:39:45;;;;;;;;;;;23.50;58.00;;;;;;5071482;28;19908;-35
2023/06/20 06:42:11;;;;;;;;;;;23.50;57.90;;;;;;5071748;28;20385;-34
2023/06/20 06:44:36;;;;;;;;;;;23.60;57.80;;;;;;5071596;28;19995;-32
2023/06/20 06:47:02;;;;;;;;;;;23.70;57.80;;;;;;5071406;28;19916;-34
2023/06/20 06:49:27;;;;;;;;;;;23.80;57.70;;;;;;5071630;28;19947;-35
2023/06/20 06:51:53;;;;;;;;;;;23.80;57.60;;;;;;5072594;28;20348;-34
2023/06/20 06:54:19;;;;;;;;;;;23.90;57.60;;;;;;5057106;28;19916;-33
2023/06/20 06:56:45;;;;;;;;;;;24.00;57.70;;;;;;5075166;28;19909;-34
2023/06/20 06:59:11;;;;;;;;;;;24.00;57.70;;;;;;5075035;28;19909;-34
2023/06/20 07:01:36;;;;;;;;;;;24.10;57.50;;;;;;5057168;28;19909;-34
2023/06/20 07:04:02;;;;;;;;;;;24.10;57.30;;;;;;5074706;28;20360;-32
2023/06/20 07:06:30;;;;;;;;;;;24.30;57.30;;;;;;5057177;28;19912;-35
2023/06/20 07:08:55;;;;;;;;;;;24.40;57.20;;;;;;5074888;28;20291;-34
2023/06/20 07:11:21;;;;;;;;;;;24.50;57.00;;;;;;5074779;28;19909;-36
2023/06/20 07:13:46;;;;;;;;;;;24.60;56.90;;;;;;5074847;28;19909;-34
2023/06/20 07:16:11;;;;;;;;;;;24.70;57.10;;;;;;5075084;28;19916;-46
2023/06/20 07:18:37;;;;;;;;;;;24.80;57.00;;;;;;5074764;28;20368;-35
2023/06/20 07:21:03;;;;;;;;;;;24.90;56.80;;;;;;5074598;28;19912;-32
2023/06/20 07:23:29;;;;;;;;;;;25.00;56.60;;;;;;5074451;28;19909;-32
2023/06/20 07:25:54;;;;;;;;;;;25.20;56.50;;;;;;5074504;28;19998;-33
2023/06/20 07:28:20;;;;;;;;;;;25.20;56.40;;;;;;5074557;28;19909;-33
2023/06/20 07:30:45;;;;;;;;;;;25.30;56.50;;;;;;5074537;28;20372;-34
2023/06/20 07:33:11;;;;;;;;;;;25.20;57.10;;;;;;5056437;28;19951;-34
2023/06/20 07:35:36;;;;;;;;;;;25.30;56.60;;;;;;5074237;28;20420;-33
2023/06/20 07:38:02;;;;;;;;;;;25.30;56.50;;;;;;5074581;28;19916;-32
2023/06/20 07:40:27;;;;;;;;;;;25.40;56.40;;;;;;5074216;28;19909;-38
2023/06/20 07:42:52;;;;;;;;;;;25.50;56.40;;;;;;5074204;28;19912;-33
2023/06/20 07:45:18;;;;;;;;;;;25.60;56.30;;;;;;5074291;28;19953;-34
2023/06/20 07:47:43;;;;;;;;;;;25.70;56.10;;;;;;5074028;28;19916;-33
2023/06/20 07:50:09;;;;;;;;;;;25.90;56.10;;;;;;5074076;28;19917;-32
2023/06/20 07:52:35;;;;;;;;;;;26.00;55.90;;;;;;5074074;28;19909;-34
2023/06/20 07:55:03;;;;;;;;;;;26.10;55.80;;;;;;5074103;28;20336;-35
2023/06/20 07:57:28;;;;;;;;;;;26.10;55.80;;;;;;5074083;28;19909;-32
2023/06/20 07:59:54;;;;;;;;;;;26.10;55.80;;;;;;5074029;28;19916;-33
2023/06/20 08:02:19;;;;;;;;;;;26.10;55.80;;;;;;5073890;28;19915;-33
2023/06/20 08:04:45;;;;;;;;;;;26.00;55.80;;;;;;5072989;28;20011;-34
2023/06/20 08:07:10;;;;;;;;;;;26.10;55.70;;;;;;5073773;28;19983;-33
2023/06/20 08:09:36;;;;;;;;;;;26.10;55.80;;;;;;5073986;28;20283;-34
2023/06/20 08:12:01;;;;;;;;;;;26.20;55.90;;;;;;5073663;28;19959;-33
2023/06/20 08:14:27;;;;;;;;;;;26.20;55.90;;;;;;5073666;28;20386;-34
2023/06/20 08:16:52;;;;;;;;;;;26.20;56.40;;;;;;5073612;28;19912;-34
2023/06/20 08:19:18;;;;;;;;;;;26.30;55.80;;;;;;5073513;28;20280;-33
2023/06/20 08:21:43;;;;;;;;;;;26.30;55.70;;;;;;5073632;28;20364;-35
2023/06/20 08:24:09;;;;;;;;;;;26.30;55.80;;;;;;5073324;28;19921;-33
2023/06/20 08:26:34;;;;;;;;;;;26.30;55.90;;;;;;5073291;28;19916;-35
2023/06/20 08:29:00;;;;;;;;;;;26.30;55.90;;;;;;5055478;28;20383;-33
2023/06/20 08:31:37;;;;;;;;;;;26.30;56.00;;;;;;5073308;28;19976;-33
2023/06/20 08:34:03;;;;;;;;;;;26.40;56.10;;;;;;5073238;28;19947;-33
2023/06/20 08:36:29;;;;;;;;;;;26.40;56.10;;;;;;5073322;28;19997;-33
2023/06/20 08:38:54;;;;;;;;;;;26.40;56.00;;;;;;5073094;28;19920;-33
2023/06/20 08:41:26;;;;;;;;;;;26.40;56.00;;;;;;5072967;28;20276;-32
2023/06/20 08:43:52;;;;;;;;;;;26.50;56.10;;;;;;5073479;28;19915;-33
2023/06/20 08:46:17;;;;;;;;;;;26.50;55.50;;;;;;5072932;28;20387;-35
2023/06/20 08:48:43;;;;;;;;;;;26.50;55.50;;;;;;5073047;28;19917;-38
2023/06/20 08:51:11;;;;;;;;;;;26.50;55.50;;;;;;5073424;28;19908;-34
2023/06/20 08:53:37;;;;;;;;;;;26.50;55.50;;;;;;5072969;28;20375;-33
2023/06/20 08:56:02;;;;;;;;;;;26.60;55.70;;;;;;5072945;28;19908;-33
2023/06/20 08:58:30;;;;;;;;;;;26.60;55.50;;;;;;5073046;28;19908;-34
2023/06/20 09:00:56;;;;;;;;;;;26.60;55.40;;;;;;5072744;28;19909;-34
2023/06/20 09:03:22;;;;;;;;;;;26.70;55.20;;;;;;5072704;28;19909;-35
2023/06/20 09:05:47;;;;;;;;;;;26.70;54.70;;;;;;5072825;28;19934;-34
2023/06/20 09:08:14;;;;;;;;;;;26.70;54.60;;;;;;5072792;28;19962;-34
2023/06/20 09:10:40;;;;;;;;;;;26.70;54.90;;;;;;5072794;28;20291;-34
2023/06/20 09:13:06;;;;;;;;;;;26.70;54.90;;;;;;5072621;28;19909;-33
2023/06/20 09:15:33;;;;;;;;;;;26.80;54.50;;;;;;5072458;28;19909;-36
2023/06/20 09:18:00;;;;;;;;;;;26.90;54.50;;;;;;5072498;28;19909;-35
2023/06/20 09:20:27;;;;;;;;;;;27.00;54.30;;;;;;5072348;28;20291;-32
2023/06/20 09:22:53;;;;;;;;;;;27.00;54.40;;;;;;5072314;28;19909;-33
2023/06/20 09:25:19;;;;;;;;;;;27.00;54.40;;;;;;5072657;28;19916;-35
2023/06/20 09:27:45;;;;;;;;;;;27.10;54.50;;;;;;5072310;28;19981;-34
2023/06/20 09:30:10;;;;;;;;;;;27.10;54.40;;;;;;5072244;28;20378;-33
2023/06/20 09:32:37;;;;;;;;;;;27.20;53.90;;;;;;5072125;28;19909;-35
2023/06/20 09:35:04;;;;;;;;;;;27.20;53.80;;;;;;5054197;28;19915;-34
2023/06/20 09:37:39;;;;;;;;;;;27.30;54.10;;;;;;5072141;28;19974;-33
2023/06/20 09:40:06;;;;;;;;;;;27.30;53.60;;;;;;5072226;28;19909;-33
2023/06/20 09:42:32;;;;;;;;;;;27.30;53.80;;;;;;5072414;28;19931;-34
2023/06/20 09:44:57;;;;;;;;;;;27.30;54.00;;;;;;5072156;28;19909;-36
2023/06/20 09:47:23;;;;;;;;;;;27.40;54.00;;;;;;5053923;28;20222;-34
2023/06/20 09:49:48;;;;;;;;;;;27.40;53.90;;;;;;5072086;28;19934;-35
2023/06/20 09:52:14;;;;;;;;;;;27.50;53.90;;;;;;5071762;28;19909;-33
2023/06/20 09:54:48;;;;;;;;;;;27.50;53.90;;;;;;5053940;28;19916;-34
2023/06/20 09:57:20;;;;;;;;;;;27.60;53.90;;;;;;5072034;28;20299;-34
2023/06/20 09:59:46;;;;;;;;;;;27.70;53.90;;;;;;5071917;28;19909;-33
2023/06/20 10:02:12;;;;;;;;;;;27.90;53.50;;;;;;5071976;28;19915;-33
2023/06/20 10:04:42;;;;;;;;;;;28.00;53.60;;;;;;5071824;28;19909;-35
2023/06/20 10:07:17;;;;;;;;;;;28.10;53.10;;;;;;5071834;28;20340;-41
2023/06/20 10:09:44;;;;;;;;;;;28.10;53.10;;;;;;5071821;28;19923;-34
2023/06/20 10:12:10;;;;;;;;;;;28.20;53.20;;;;;;5071849;28;19972;-32
2023/06/20 10:14:36;;;;;;;;;;;28.20;52.50;;;;;;5071928;28;20008;-36
2023/06/20 10:17:09;;;;;;;;;;;28.30;52.50;;;;;;5071672;28;19943;-33
2023/06/20 10:19:47;;;;;;;;;;;28.30;52.70;;;;;;5053534;28;19909;-34
2023/06/20 10:22:13;;;;;;;;;;;28.40;52.80;;;;;;5071946;28;20307;-33
2023/06/20 10:24:39;;;;;;;;;;;28.50;53.40;;;;;;5071602;28;19931;-34
2023/06/20 10:27:05;;;;;;;;;;;28.60;52.70;;;;;;5073276;28;19960;-34
2023/06/20 10:29:38;;;;;;;;;;;28.70;51.80;;;;;;5075680;28;19908;-33
2023/06/20 10:32:07;;;;;;;;;;;28.80;52.00;;;;;;5075441;28;19970;-36
2023/06/20 10:34:38;;;;;;;;;;;28.80;52.10;;;;;;5075462;28;20488;-34
2023/06/20 10:37:10;;;;;;;;;;;28.80;52.00;;;;;;5075636;28;19912;-33
2023/06/20 10:39:35;;;;;;;;;;;28.90;52.20;;;;;;5075292;28;20330;-33
2023/06/20 10:42:06;;;;;;;;;;;28.90;52.20;;;;;;5075301;28;19912;-37
2023/06/20 10:44:32;;;;;;;;;;;29.00;51.70;;;;;;5075244;28;19944;-32
2023/06/20 10:46:57;;;;;;;;;;;29.00;51.60;;;;;;5075148;28;19958;-36
2023/06/20 10:49:23;;;;;;;;;;;29.10;51.30;;;;;;5075562;28;19908;-33
2023/06/20 10:51:49;;;;;;;;;;;29.10;51.10;;;;;;5075175;28;20436;-34
2023/06/20 10:54:16;;;;;;;;;;;29.10;51.10;;;;;;5075016;28;19909;-34
2023/06/20 10:56:46;;;;;;;;;;;29.30;51.20;;;;;;5074956;28;19912;-34
2023/06/20 10:59:12;;;;;;;;;;;29.20;50.80;;;;;;5074965;28;19931;-33
2023/06/20 11:01:38;;;;;;;;;;;29.20;51.10;;;;;;5075011;28;19909;-34
2023/06/20 11:04:07;;;;;;;;;;;29.20;51.20;;;;;;5074914;28;19927;-33
2023/06/20 11:06:33;;;;;;;;;;;29.30;51.30;;;;;;5074961;28;19927;-33
2023/06/20 11:08:58;;;;;;;;;;;29.40;51.20;;;;;;5075164;28;19908;-33
2023/06/20 11:11:31;;;;;;;;;;;29.50;51.20;;;;;;5075300;28;20407;-34
2023/06/20 11:14:08;;;;;;;;;;;29.60;50.90;;;;;;5075026;28;19952;-34
2023/06/20 11:16:34;;;;;;;;;;;29.70;50.80;;;;;;5074753;28;20448;-35
2023/06/20 11:19:00;;;;;;;;;;;29.80;50.60;;;;;;5074836;28;19954;-38
2023/06/20 11:21:26;;;;;;;;;;;30.00;50.60;;;;;;5074806;28;19948;-33
2023/06/20 11:23:58;;;;;;;;;;;30.10;50.60;;;;;;5074604;28;20316;-34
2023/06/20 11:26:27;;;;;;;;;;;30.10;50.60;;;;;;5074729;28;19917;-34
2023/06/20 11:29:02;;;;;;;;;;;30.10;50.60;;;;;;5074624;28;19915;-34
2023/06/20 11:31:28;;;;;;;;;;;30.10;49.70;;;;;;5074651;28;19908;-35
2023/06/20 11:34:02;;;;;;;;;;;30.20;49.40;;;;;;5074635;28;20231;-34
2023/06/20 11:36:31;;;;;;;;;;;30.20;49.40;;;;;;5074549;28;20265;-34
2023/06/20 11:39:05;;;;;;;;;;;30.20;49.60;;;;;;5054967;28;20054;-34
2023/06/20 11:41:33;;;;;;;;;;;30.10;49.60;;;;;;5074588;28;19912;-34
2023/06/20 11:43:59;;;;;;;;;;;30.00;49.90;;;;;;5074447;28;19908;-34
2023/06/20 11:46:25;;;;;;;;;;;30.00;50.10;;;;;;5074096;28;19973;-32
2023/06/20 11:48:52;;;;;;;;;;;30.10;50.10;;;;;;5074198;28;20445;-35
2023/06/20 11:51:24;;;;;;;;;;;30.20;50.00;;;;;;5074065;28;19931;-34
2023/06/20 11:53:59;;;;;;;;;;;30.40;50.00;;;;;;5073960;28;20264;-35
2023/06/20 11:56:25;;;;;;;;;;;30.50;50.00;;;;;;5074022;28;19955;-34
2023/06/20 11:58:52;;;;;;;;;;;30.50;49.50;;;;;;5074192;28;19912;-33
2023/06/20 12:01:20;;;;;;;;;;;30.50;49.60;;;;;;5073946;28;20422;-36
2023/06/20 12:03:46;;;;;;;;;;;30.50;49.70;;;;;;5073936;28;20140;-33
2023/06/20 12:06:28;;;;;;;;;;;30.60;49.20;;;;;;5074233;28;20435;-33
2023/06/20 12:08:54;;;;;;;;;;;30.60;48.90;;;;;;5073851;28;19913;-33
2023/06/20 12:11:20;;;;;;;;;;;30.70;49.10;;;;;;5073993;28;20427;-35
2023/06/20 12:13:47;;;;;;;;;;;30.70;49.10;;;;;;5074314;28;20004;-35
2023/06/20 12:16:13;;;;;;;;;;;30.80;49.00;;;;;;5073953;28;19958;-34
2023/06/20 12:18:39;;;;;;;;;;;30.80;49.00;;;;;;5073926;28;19912;-34
2023/06/20 12:21:04;;;;;;;;;;;30.90;49.00;;;;;;5055566;28;19916;-42
2023/06/20 12:23:30;;;;;;;;;;;31.10;48.30;;;;;;5073682;28;19909;-33
2023/06/20 12:25:56;;;;;;;;;;;31.10;48.40;;;;;;5073784;28;19914;-34
2023/06/20 12:28:22;;;;;;;;;;;31.10;48.30;;;;;;5073800;28;19962;-32
2023/06/20 12:30:47;;;;;;;;;;;31.20;48.00;;;;;;5073716;28;20318;-35
2023/06/20 12:33:13;;;;;;;;;;;31.20;48.00;;;;;;5073515;28;19912;-36
2023/06/20 12:35:38;;;;;;;;;;;31.30;48.10;;;;;;5073722;28;19909;-34
2023/06/20 12:38:04;;;;;;;;;;;31.40;48.20;;;;;;5073560;28;19908;-39
2023/06/20 12:40:29;;;;;;;;;;;31.50;48.00;;;;;;5073620;28;20013;-35
2023/06/20 12:42:55;;;;;;;;;;;31.60;48.10;;;;;;5073226;28;19910;-34
2023/06/20 12:45:20;;;;;;;;;;;31.60;48.10;;;;;;5073259;28;20327;-44
2023/06/20 12:47:46;;;;;;;;;;;31.70;48.10;;;;;;5073112;28;19959;-34
2023/06/20 12:50:12;;;;;;;;;;;31.90;48.10;;;;;;5072997;28;19908;-33
2023/06/20 12:52:37;;;;;;;;;;;31.90;48.00;;;;;;5073214;28;19908;-33
2023/06/20 12:55:05;;;;;;;;;;;32.00;48.00;;;;;;5073033;28;19918;-32
2023/06/20 12:57:31;;;;;;;;;;;32.10;47.70;;;;;;5073010;28;19912;-36
2023/06/20 12:59:58;;;;;;;;;;;32.10;47.00;;;;;;5072859;28;19908;-41
2023/06/20 13:02:24;;;;;;;;;;;32.00;47.20;;;;;;5073008;28;20416;-35
2023/06/20 13:04:53;;;;;;;;;;;31.90;47.40;;;;;;5054863;28;19909;-35
2023/06/20 13:07:22;;;;;;;;;;;31.80;47.40;;;;;;5073174;28;19965;-36
2023/06/20 13:09:49;;;;;;;;;;;31.80;47.50;;;;;;5072958;28;19954;-35
2023/06/20 13:12:15;;;;;;;;;;;31.70;47.60;;;;;;5072671;28;19915;-34
2023/06/20 13:14:41;;;;;;;;;;;31.80;47.70;;;;;;5054961;28;20287;-35
2023/06/20 13:17:07;;;;;;;;;;;31.90;48.30;;;;;;5072694;28;19916;-35
2023/06/20 13:19:33;;;;;;;;;;;31.90;47.00;;;;;;5072958;28;19908;-34
2023/06/20 13:21:58;;;;;;;;;;;32.10;47.10;;;;;;5072466;28;20363;-33
2023/06/20 13:24:24;;;;;;;;;;;32.20;47.00;;;;;;5072592;28;19917;-33
2023/06/20 13:26:51;;;;;;;;;;;32.30;47.00;;;;;;5071946;28;20303;-34
2023/06/20 13:29:16;;;;;;;;;;;32.50;47.00;;;;;;5072271;28;20251;-34
2023/06/20 13:31:42;;;;;;;;;;;32.50;46.90;;;;;;5072345;28;19913;-35
2023/06/20 13:34:07;;;;;;;;;;;32.50;46.90;;;;;;5072272;28;20003;-33
2023/06/20 13:36:33;;;;;;;;;;;32.50;46.70;;;;;;5054402;28;19916;-35
2023/06/20 13:39:00;;;;;;;;;;;32.70;46.60;;;;;;5072472;28;19942;-44
2023/06/20 13:41:26;;;;;;;;;;;33.00;46.50;;;;;;5054345;28;20318;-31
2023/06/20 13:43:51;;;;;;;;;;;33.20;46.30;;;;;;5072203;28;19965;-39
2023/06/20 13:46:18;;;;;;;;;;;33.30;46.00;;;;;;5072145;28;19916;-34
2023/06/20 13:48:44;;;;;;;;;;;33.30;45.60;;;;;;5072368;28;20008;-35
2023/06/20 13:51:09;;;;;;;;;;;33.20;45.50;;;;;;5072375;28;20387;-36
2023/06/20 13:53:35;;;;;;;;;;;33.20;45.60;;;;;;5072017;28;19912;-34
2023/06/20 13:56:00;;;;;;;;;;;33.30;45.70;;;;;;5071952;28;19913;-34
2023/06/20 13:58:25;;;;;;;;;;;33.50;45.50;;;;;;5072056;28;19923;-33
2023/06/20 14:00:51;;;;;;;;;;;33.60;45.20;;;;;;5071745;28;20435;-36
2023/06/20 14:03:16;;;;;;;;;;;33.80;45.10;;;;;;5071727;28;19913;-34
2023/06/20 14:05:42;;;;;;;;;;;33.90;45.00;;;;;;5071874;28;20348;-35
2023/06/20 14:08:07;;;;;;;;;;;33.90;44.70;;;;;;5072165;28;19916;-33
2023/06/20 14:10:33;;;;;;;;;;;33.80;44.60;;;;;;5072190;28;19917;-35
2023/06/20 14:12:58;;;;;;;;;;;33.60;44.20;;;;;;5071930;28;19995;-34